• Join FlightAware (Why Join?)
  • Login
  • US Flag 
03:39AM EDT


 

Airport Tracker/Info


-or-


 

Live Flight TrackerFlight Track Log ✈ JZA8745 ✈ 07-May-2013 ✈ CZBF - CYUL

Flight Track Log - Related Links

Times and Time Zones

All times are in EDT time to prevent confusion due to time zone crossing. See the JZA8745 flight status page for this flight to view local times or setup timezone preferences in your user account.

Time Position Orientation Groundspeed Altitude Reporting Facility
EDT Latitude Longitude Course Direction KTS MPH feet Rate Location/Type
02:56PM 47.5667 -65.8833 244° Southwest 140 161 5,800  Level Moncton Center
02:57PM 47.5500 -65.9333 244° Southwest 130 150 7,400 1,680 Climbing Moncton Center
02:58PM 47.5167 -65.9833 225° Southwest 150 173 9,200 1,440 Climbing Moncton Center
02:59PM 47.5000 -66.0333 244° Southwest 140 161 10,300 1,680 Climbing Moncton Center
03:00PM 47.4833 -66.1000 250° West 150 173 12,600 1,860 Climbing Moncton Center
03:01PM 47.4860 -66.1422 244° Southwest  Level FlightAware Approximate
03:01PM 47.4667 -66.1333 234° Southwest 140 161 14,100  Level Moncton Center
03:02PM 47.4500 -66.2000 250° West 140 161 14,900 840 Climbing Moncton Center
03:03PM 47.4333 -66.2500 244° Southwest 150 173 15,800 900 Climbing Moncton Center
03:04PM 47.4167 -66.3000 244° Southwest 170 196 16,700 900 Climbing Moncton Center
03:05PM 47.4000 -66.3833 254° West 180 207 17,700 900 Climbing Moncton Center
03:06PM 47.3667 -66.4500 234° Southwest 180 207 18,500 660 Climbing Moncton Center
03:07PM 47.3500 -66.5167 250° West 180 207 19,100 660 Climbing Moncton Center
03:08PM 47.3333 -66.5667 244° Southwest 180 207 19,900 720 Climbing Moncton Center
03:09PM 47.3000 -66.6500 239° Southwest 180 207 20,600 600 Climbing Moncton Center
03:10PM 47.2667 -66.7167 234° Southwest 180 207 21,200 660 Climbing Moncton Center
03:11PM 47.2500 -66.7667 244° Southwest 180 207 22,000 360 Climbing Moncton Center
03:12PM 47.2167 -66.8333 234° Southwest 190 219 22,000  Level Moncton Center
03:13PM 47.2000 -66.9167 254° West 200 230 22,000  Level Moncton Center
03:14PM 47.1667 -67.0000 240° Southwest 220 253 22,000  Level Moncton Center
03:15PM 47.1333 -67.0833 240° Southwest 220 253 22,000  Level Moncton Center
03:16PM 47.1167 -67.1500 250° West 220 253 22,000  Level Moncton Center
03:17PM 47.0833 -67.2500 244° Southwest 220 253 22,000  Level Moncton Center
03:18PM 47.0500 -67.3167 234° Southwest 230 265 22,000  Level Moncton Center
03:19PM 47.0167 -67.4000 240° Southwest 220 253 22,000  Level Moncton Center
03:20PM 46.9833 -67.4833 240° Southwest 220 253 22,000  Level Moncton Center
03:21PM 46.9500 -67.5667 240° Southwest 220 253 22,000  Level Moncton Center
03:22PM 46.9333 -67.6333 250° West 220 253 22,000  Level Moncton Center
03:22PM 46.9342 -67.6736 272° West 236 272 22,000  Level Boston Center
03:23PM 46.9042 -67.7522 241° Southwest 236 272 22,000  Level Boston Center
03:24PM 46.8742 -67.8336 242° Southwest 231 266 22,000  Level Boston Center
03:25PM 46.8417 -67.9092 238° Southwest 231 266 22,000  Level Boston Center
03:26PM 46.8139 -68.0056 247° West 238 274 22,000  Level Boston Center
03:27PM 46.7792 -68.0781 235° Southwest 243 280 22,000  Level Boston Center
03:28PM 46.7553 -68.1647 248° West 238 274 22,000  Level Boston Center
03:29PM 46.7314 -68.2514 248° West 233 268 22,000  Level Boston Center
03:30PM 46.7075 -68.3378 248° West 233 268 22,000  Level Boston Center
03:31PM 46.6789 -68.4186 243° Southwest 233 268 22,000  Level Boston Center
03:32PM 46.6567 -68.5019 249° West 233 268 22,000  Level Boston Center
03:33PM 46.6286 -68.5975 247° West 233 268 22,000  Level Boston Center
03:34PM 46.6022 -68.6808 245° Southwest 233 268 22,000  Level Boston Center
03:35PM 46.5758 -68.7703 247° West 233 268 22,000  Level Boston Center
03:36PM 46.5514 -68.8533 247° West 238 274 22,000  Level Boston Center
03:37PM 46.5269 -68.9392 248° West 232 267 22,000  Level Boston Center
03:38PM 46.5003 -69.0225 245° Southwest 232 267 22,000  Level Boston Center
03:39PM 46.4756 -69.1022 246° West 232 267 22,000  Level Boston Center
03:40PM 46.4486 -69.1881 246° West 238 274 22,000  Level Boston Center
03:41PM 46.4219 -69.2739 246° West 238 274 22,000  Level Boston Center
03:42PM 46.3950 -69.3567 245° Southwest 238 274 22,000  Level Boston Center
03:43PM 46.3661 -69.4456 245° Southwest 238 274 22,000  Level Boston Center
03:44PM 46.3392 -69.5311 246° West 238 274 22,000  Level Boston Center
03:45PM 46.3142 -69.6167 247° West 238 274 22,000  Level Boston Center
03:46PM 46.2869 -69.7050 246° West 238 274 22,000  Level Boston Center
03:47PM 46.2597 -69.7903 245° Southwest 238 274 22,000  Level Boston Center
03:48PM 46.2325 -69.8756 245° Southwest 238 274 22,000  Level Boston Center
03:49PM 46.2053 -69.9639 246° West 238 274 22,000  Level Boston Center
03:50PM 46.1800 -70.0519 248° West 238 274 22,000  Level Boston Center
03:51PM 46.1506 -70.1369 243° Southwest 238 274 22,000  Level Boston Center
03:52PM 46.1333 -70.2000 249° West 240 276 22,000  Level Moncton Center
03:53PM 46.0833 -70.2833 229° Southwest 240 276 22,000  Level Moncton Center
03:54PM 46.0667 -70.3500 250° West 240 276 22,000  Level Moncton Center
03:55PM 46.0500 -70.4500 257° West 240 276 22,000  Level Moncton Center
03:56PM 46.0167 -70.5500 244° Southwest 240 276 22,000  Level Moncton Center
03:57PM 45.9833 -70.6167 234° Southwest 240 276 22,000  Level Moncton Center
03:58PM 45.9500 -70.7000 240° Southwest 240 276 22,000  Level Moncton Center
03:59PM 45.9333 -70.8000 257° West 240 276 22,000  Level Moncton Center
04:00PM 45.9000 -70.9000 244° Southwest 240 276 22,000  Level Moncton Center
04:01PM 45.9000 -70.9833 270° West 230 265 22,000  Level Moncton Center
04:02PM 45.9000 -71.0833 270° West 240 276 22,000  Level Moncton Center
04:03PM 45.8833 -71.1500 250° West 240 276 22,000  Level Montreal Center
04:04PM 45.8667 -71.2500 257° West 240 276 22,000  Level Montreal Center
04:05PM 45.8833 -71.3500 283° West 240 276 22,000  Level Montreal Center
04:06PM 45.8667 -71.4333 254° West 240 276 22,000  Level Montreal Center
04:07PM 45.8500 -71.5333 257° West 240 276 22,000  Level Montreal Center
04:08PM 45.8333 -71.6167 254° West 240 276 22,000  Level Montreal Center
04:09PM 45.8500 -71.7000 286° West 240 276 22,000 -300 Level Montreal Center
04:10PM 45.8333 -71.8000 257° West 240 276 21,400 -900 Descending Montreal Center
04:11PM 45.8167 -71.9333 260° West 260 299 20,300 -1,140 Descending Montreal Center
04:12PM 45.8000 -72.0167 254° West 270 311 19,200 -1,200 Descending Montreal Center
04:13PM 45.8000 -72.1500 270° West 280 322 17,900 -1,200 Descending Montreal Center
04:14PM 45.7833 -72.2500 257° West 280 322 16,900 -1,080 Descending Montreal Center
04:15PM 45.7833 -72.3667 270° West 280 322 15,800 -1,200 Descending Montreal Center
04:16PM 45.7667 -72.4833 258° West 270 311 14,600 -1,200 Descending Montreal Center
04:17PM 45.7500 -72.5833 257° West 270 311 13,500 -1,140 Descending Montreal Center
04:18PM 45.7500 -72.6833 270° West 270 311 12,400 -1,140 Descending Montreal Center
04:19PM 45.7333 -72.8000 258° West 270 311 11,300 -1,140 Descending Montreal Center
04:20PM 45.7167 -72.9000 257° West 270 311 10,200 -1,140 Descending Montreal Center
04:21PM 45.7000 -73.0167 258° West 270 311 9,100 -1,080 Descending Montreal Center
04:22PM 45.7000 -73.1167 270° West 260 299 8,100 -1,020 Descending Montreal Center
04:23PM 45.6667 -73.2167 245° Southwest 260 299 7,100 -960 Descending Montreal Center
04:24PM 45.6667 -73.3000 270° West 250 288 6,200 -1,020 Descending Montreal Center
04:25PM 45.6500 -73.4000 257° West 250 288 5,100 -960 Descending Montreal Center
04:26PM 45.6333 -73.5000 257° West 220 253 4,300 -780 Descending Montreal Center
04:27PM 45.6000 -73.5500 226° Southwest 190 219 3,600 -900 Descending Montreal Center
04:28PM 45.5667 -73.6000 226° Southwest 190 219 2,500 -1,020 Descending Montreal Center
04:29PM 45.5333 -73.6500 226° Southwest 170 196 1,600 -900 Descending Montreal Center
04:30PM 45.5000 -73.7000 226° Southwest 140 161 800 -720 Descending Montreal Center
04:31PM 45.4667 -73.7167 199° South 110 127 200 -360 Descending Montreal Center
04:32PM 45.4500 -73.7500 235° Southwest 30 35 100 -120 Descending Montreal Center